sensor_id;sensor_type;location;lat;lon;timestamp;temperature;humidity
20672;DHT22;10495;50.922;4.760;2023-04-23T00:00:52;11.70;90.10
20672;DHT22;10495;50.922;4.760;2023-04-23T00:03:22;11.70;90.10
20672;DHT22;10495;50.922;4.760;2023-04-23T00:05:51;11.80;89.50
20672;DHT22;10495;50.922;4.760;2023-04-23T00:08:18;11.90;89.20
20672;DHT22;10495;50.922;4.760;2023-04-23T00:10:44;11.90;89.10
20672;DHT22;10495;50.922;4.760;2023-04-23T00:13:10;11.70;89.20
20672;DHT22;10495;50.922;4.760;2023-04-23T00:15:36;12.00;88.80
20672;DHT22;10495;50.922;4.760;2023-04-23T00:18:02;12.30;87.30
20672;DHT22;10495;50.922;4.760;2023-04-23T00:20:28;12.20;88.00
20672;DHT22;10495;50.922;4.760;2023-04-23T00:22:53;12.30;87.50
20672;DHT22;10495;50.922;4.760;2023-04-23T00:25:19;12.00;88.30
20672;DHT22;10495;50.922;4.760;2023-04-23T00:27:45;11.90;88.70
20672;DHT22;10495;50.922;4.760;2023-04-23T00:30:12;11.70;89.50
20672;DHT22;10495;50.922;4.760;2023-04-23T00:32:37;11.70;89.90
20672;DHT22;10495;50.922;4.760;2023-04-23T00:35:03;11.80;90.00
20672;DHT22;10495;50.922;4.760;2023-04-23T00:37:30;11.80;90.10
20672;DHT22;10495;50.922;4.760;2023-04-23T00:39:55;11.90;90.00
20672;DHT22;10495;50.922;4.760;2023-04-23T00:42:21;11.90;90.10
20672;DHT22;10495;50.922;4.760;2023-04-23T00:44:47;11.80;90.10
20672;DHT22;10495;50.922;4.760;2023-04-23T00:47:15;11.90;90.10
20672;DHT22;10495;50.922;4.760;2023-04-23T00:49:41;11.90;90.20
20672;DHT22;10495;50.922;4.760;2023-04-23T00:52:07;11.70;90.50
20672;DHT22;10495;50.922;4.760;2023-04-23T00:54:32;11.80;90.60
20672;DHT22;10495;50.922;4.760;2023-04-23T00:56:58;11.70;90.60
20672;DHT22;10495;50.922;4.760;2023-04-23T00:59:25;11.60;90.80
20672;DHT22;10495;50.922;4.760;2023-04-23T01:01:51;11.60;91.10
20672;DHT22;10495;50.922;4.760;2023-04-23T01:04:18;11.70;90.70
20672;DHT22;10495;50.922;4.760;2023-04-23T01:06:45;11.70;90.70
20672;DHT22;10495;50.922;4.760;2023-04-23T01:09:12;11.70;90.80
20672;DHT22;10495;50.922;4.760;2023-04-23T01:11:39;11.70;90.60
20672;DHT22;10495;50.922;4.760;2023-04-23T01:14:07;11.80;90.60
20672;DHT22;10495;50.922;4.760;2023-04-23T01:16:34;11.70;90.70
20672;DHT22;10495;50.922;4.760;2023-04-23T01:19:00;11.60;90.80
20672;DHT22;10495;50.922;4.760;2023-04-23T01:21:28;11.60;90.90
20672;DHT22;10495;50.922;4.760;2023-04-23T01:23:54;11.50;91.20
20672;DHT22;10495;50.922;4.760;2023-04-23T01:26:21;11.70;91.00
20672;DHT22;10495;50.922;4.760;2023-04-23T01:28:48;11.70;91.00
20672;DHT22;10495;50.922;4.760;2023-04-23T01:31:15;11.70;90.80
20672;DHT22;10495;50.922;4.760;2023-04-23T01:33:41;11.80;90.80
20672;DHT22;10495;50.922;4.760;2023-04-23T01:36:07;11.60;90.70
20672;DHT22;10495;50.922;4.760;2023-04-23T01:38:35;11.70;90.80
20672;DHT22;10495;50.922;4.760;2023-04-23T01:41:03;11.80;90.60
20672;DHT22;10495;50.922;4.760;2023-04-23T01:43:30;11.80;90.50
20672;DHT22;10495;50.922;4.760;2023-04-23T01:45:57;11.90;90.30
20672;DHT22;10495;50.922;4.760;2023-04-23T01:48:23;11.90;90.40
20672;DHT22;10495;50.922;4.760;2023-04-23T01:50:50;11.80;90.60
20672;DHT22;10495;50.922;4.760;2023-04-23T01:53:16;11.80;90.60
20672;DHT22;10495;50.922;4.760;2023-04-23T01:55:44;11.90;90.60
20672;DHT22;10495;50.922;4.760;2023-04-23T01:58:11;11.70;90.80
20672;DHT22;10495;50.922;4.760;2023-04-23T02:00:36;11.70;90.90
20672;DHT22;10495;50.922;4.760;2023-04-23T02:03:02;11.70;90.90
20672;DHT22;10495;50.922;4.760;2023-04-23T02:05:28;11.70;90.90
20672;DHT22;10495;50.922;4.760;2023-04-23T02:07:54;11.70;90.90
20672;DHT22;10495;50.922;4.760;2023-04-23T02:10:20;11.70;91.10
20672;DHT22;10495;50.922;4.760;2023-04-23T02:12:46;11.80;91.00
20672;DHT22;10495;50.922;4.760;2023-04-23T02:15:12;11.90;90.80
20672;DHT22;10495;50.922;4.760;2023-04-23T02:17:38;12.00;90.80
20672;DHT22;10495;50.922;4.760;2023-04-23T02:20:06;12.00;90.60
20672;DHT22;10495;50.922;4.760;2023-04-23T02:22:32;11.90;90.70
20672;DHT22;10495;50.922;4.760;2023-04-23T02:24:58;12.00;90.70
20672;DHT22;10495;50.922;4.760;2023-04-23T02:27:24;12.10;90.40
20672;DHT22;10495;50.922;4.760;2023-04-23T02:29:50;12.20;90.40
20672;DHT22;10495;50.922;4.760;2023-04-23T02:32:16;12.10;90.30
20672;DHT22;10495;50.922;4.760;2023-04-23T02:34:42;12.00;90.40
20672;DHT22;10495;50.922;4.760;2023-04-23T02:37:07;12.00;90.70
20672;DHT22;10495;50.922;4.760;2023-04-23T02:39:33;12.00;90.60
20672;DHT22;10495;50.922;4.760;2023-04-23T02:41:59;12.10;90.50
20672;DHT22;10495;50.922;4.760;2023-04-23T02:44:26;12.10;90.40
20672;DHT22;10495;50.922;4.760;2023-04-23T02:46:52;12.10;90.30
20672;DHT22;10495;50.922;4.760;2023-04-23T02:49:17;12.00;90.50
20672;DHT22;10495;50.922;4.760;2023-04-23T02:51:46;12.00;90.40
20672;DHT22;10495;50.922;4.760;2023-04-23T02:54:12;12.00;90.30
20672;DHT22;10495;50.922;4.760;2023-04-23T02:56:38;12.10;90.20
20672;DHT22;10495;50.922;4.760;2023-04-23T02:59:04;12.00;90.00
20672;DHT22;10495;50.922;4.760;2023-04-23T03:01:30;12.00;90.10
20672;DHT22;10495;50.922;4.760;2023-04-23T03:03:56;11.90;90.20
20672;DHT22;10495;50.922;4.760;2023-04-23T03:06:22;11.90;90.00
20672;DHT22;10495;50.922;4.760;2023-04-23T03:08:48;11.90;89.90
20672;DHT22;10495;50.922;4.760;2023-04-23T03:11:14;11.80;89.90
20672;DHT22;10495;50.922;4.760;2023-04-23T03:13:39;11.80;90.00
20672;DHT22;10495;50.922;4.760;2023-04-23T03:16:07;11.70;89.90
20672;DHT22;10495;50.922;4.760;2023-04-23T03:18:33;11.70;89.80
20672;DHT22;10495;50.922;4.760;2023-04-23T03:20:58;11.60;90.10
20672;DHT22;10495;50.922;4.760;2023-04-23T03:23:24;11.70;90.10
20672;DHT22;10495;50.922;4.760;2023-04-23T03:25:49;11.60;90.20
20672;DHT22;10495;50.922;4.760;2023-04-23T03:28:15;11.40;90.50
20672;DHT22;10495;50.922;4.760;2023-04-23T03:30:41;11.40;90.60
20672;DHT22;10495;50.922;4.760;2023-04-23T03:33:07;11.40;90.50
20672;DHT22;10495;50.922;4.760;2023-04-23T03:35:32;11.20;90.80
20672;DHT22;10495;50.922;4.760;2023-04-23T03:37:58;11.10;91.00
20672;DHT22;10495;50.922;4.760;2023-04-23T03:40:24;11.10;91.10
20672;DHT22;10495;50.922;4.760;2023-04-23T03:42:49;11.00;91.30
20672;DHT22;10495;50.922;4.760;2023-04-23T03:45:15;11.00;91.40
20672;DHT22;10495;50.922;4.760;2023-04-23T03:47:41;10.90;91.70
20672;DHT22;10495;50.922;4.760;2023-04-23T03:50:08;10.90;91.70
20672;DHT22;10495;50.922;4.760;2023-04-23T03:52:34;10.90;91.60
20672;DHT22;10495;50.922;4.760;2023-04-23T03:55:01;11.00;91.60
20672;DHT22;10495;50.922;4.760;2023-04-23T03:57:27;11.00;91.50
20672;DHT22;10495;50.922;4.760;2023-04-23T03:59:53;11.00;91.50
20672;DHT22;10495;50.922;4.760;2023-04-23T04:02:19;11.10;91.40
20672;DHT22;10495;50.922;4.760;2023-04-23T04:04:44;11.00;91.40
20672;DHT22;10495;50.922;4.760;2023-04-23T04:07:11;10.90;91.60
20672;DHT22;10495;50.922;4.760;2023-04-23T04:09:37;10.90;91.60
20672;DHT22;10495;50.922;4.760;2023-04-23T04:12:04;10.80;91.70
20672;DHT22;10495;50.922;4.760;2023-04-23T04:14:30;10.90;91.80
20672;DHT22;10495;50.922;4.760;2023-04-23T04:16:57;10.90;91.50
20672;DHT22;10495;50.922;4.760;2023-04-23T04:19:23;10.80;91.70
20672;DHT22;10495;50.922;4.760;2023-04-23T04:21:49;10.80;91.50
20672;DHT22;10495;50.922;4.760;2023-04-23T04:24:16;10.90;91.60
20672;DHT22;10495;50.922;4.760;2023-04-23T04:26:43;10.90;91.50
20672;DHT22;10495;50.922;4.760;2023-04-23T04:29:10;10.80;91.70
20672;DHT22;10495;50.922;4.760;2023-04-23T04:31:36;10.80;91.70
20672;DHT22;10495;50.922;4.760;2023-04-23T04:34:02;10.80;91.60
20672;DHT22;10495;50.922;4.760;2023-04-23T04:36:28;10.80;91.50
20672;DHT22;10495;50.922;4.760;2023-04-23T04:38:54;10.80;91.50
20672;DHT22;10495;50.922;4.760;2023-04-23T04:41:22;10.70;91.90
20672;DHT22;10495;50.922;4.760;2023-04-23T04:43:50;10.70;91.70
20672;DHT22;10495;50.922;4.760;2023-04-23T04:46:16;10.70;91.80
20672;DHT22;10495;50.922;4.760;2023-04-23T04:48:45;10.70;92.00
20672;DHT22;10495;50.922;4.760;2023-04-23T04:51:11;10.70;92.00
20672;DHT22;10495;50.922;4.760;2023-04-23T04:53:37;10.70;91.80
20672;DHT22;10495;50.922;4.760;2023-04-23T04:56:02;10.70;91.70
20672;DHT22;10495;50.922;4.760;2023-04-23T04:58:28;10.80;91.60
20672;DHT22;10495;50.922;4.760;2023-04-23T05:00:54;10.80;91.70
20672;DHT22;10495;50.922;4.760;2023-04-23T05:03:20;10.70;91.80
20672;DHT22;10495;50.922;4.760;2023-04-23T05:05:46;10.70;91.90
20672;DHT22;10495;50.922;4.760;2023-04-23T05:08:13;10.70;92.00
20672;DHT22;10495;50.922;4.760;2023-04-23T05:10:41;10.70;92.00
20672;DHT22;10495;50.922;4.760;2023-04-23T05:13:07;10.70;91.90
20672;DHT22;10495;50.922;4.760;2023-04-23T05:15:33;10.80;92.00
20672;DHT22;10495;50.922;4.760;2023-04-23T05:17:58;10.80;91.90
20672;DHT22;10495;50.922;4.760;2023-04-23T05:20:24;10.90;91.70
20672;DHT22;10495;50.922;4.760;2023-04-23T05:22:50;11.00;91.50
20672;DHT22;10495;50.922;4.760;2023-04-23T05:25:16;11.10;91.50
20672;DHT22;10495;50.922;4.760;2023-04-23T05:27:42;11.00;91.90
20672;DHT22;10495;50.922;4.760;2023-04-23T05:30:09;11.10;91.50
20672;DHT22;10495;50.922;4.760;2023-04-23T05:32:35;11.00;91.60
20672;DHT22;10495;50.922;4.760;2023-04-23T05:35:04;11.10;91.60
20672;DHT22;10495;50.922;4.760;2023-04-23T05:37:30;11.30;91.30
20672;DHT22;10495;50.922;4.760;2023-04-23T05:39:56;11.30;91.30
20672;DHT22;10495;50.922;4.760;2023-04-23T05:42:22;11.30;91.50
20672;DHT22;10495;50.922;4.760;2023-04-23T05:44:48;11.50;91.40
20672;DHT22;10495;50.922;4.760;2023-04-23T05:47:14;11.60;91.30
20672;DHT22;10495;50.922;4.760;2023-04-23T05:49:40;11.90;91.20
20672;DHT22;10495;50.922;4.760;2023-04-23T05:52:05;12.20;91.20
20672;DHT22;10495;50.922;4.760;2023-04-23T05:54:31;12.60;90.80
20672;DHT22;10495;50.922;4.760;2023-04-23T05:56:57;13.10;90.60
20672;DHT22;10495;50.922;4.760;2023-04-23T05:59:23;13.40;89.10
20672;DHT22;10495;50.922;4.760;2023-04-23T06:01:49;13.80;88.90
20672;DHT22;10495;50.922;4.760;2023-04-23T06:04:15;14.10;86.50
20672;DHT22;10495;50.922;4.760;2023-04-23T06:06:44;14.50;85.80
20672;DHT22;10495;50.922;4.760;2023-04-23T06:09:10;14.80;84.70
20672;DHT22;10495;50.922;4.760;2023-04-23T06:11:36;15.10;83.80
20672;DHT22;10495;50.922;4.760;2023-04-23T06:14:03;15.30;82.70
20672;DHT22;10495;50.922;4.760;2023-04-23T06:16:29;15.70;83.00
20672;DHT22;10495;50.922;4.760;2023-04-23T06:18:54;16.00;80.70
20672;DHT22;10495;50.922;4.760;2023-04-23T06:21:24;16.10;79.90
20672;DHT22;10495;50.922;4.760;2023-04-23T06:23:50;16.20;78.50
20672;DHT22;10495;50.922;4.760;2023-04-23T06:26:16;16.60;79.30
20672;DHT22;10495;50.922;4.760;2023-04-23T06:28:42;16.70;77.60
20672;DHT22;10495;50.922;4.760;2023-04-23T06:31:08;17.00;77.70
20672;DHT22;10495;50.922;4.760;2023-04-23T06:33:34;17.30;77.00
20672;DHT22;10495;50.922;4.760;2023-04-23T06:36:02;17.70;75.60
20672;DHT22;10495;50.922;4.760;2023-04-23T06:38:27;18.00;74.80
20672;DHT22;10495;50.922;4.760;2023-04-23T06:40:53;18.20;74.20
20672;DHT22;10495;50.922;4.760;2023-04-23T06:43:19;18.10;73.80
20672;DHT22;10495;50.922;4.760;2023-04-23T06:45:44;18.10;73.60
20672;DHT22;10495;50.922;4.760;2023-04-23T06:48:10;18.30;72.80
20672;DHT22;10495;50.922;4.760;2023-04-23T06:50:36;18.30;72.30
20672;DHT22;10495;50.922;4.760;2023-04-23T06:53:01;18.30;72.60
20672;DHT22;10495;50.922;4.760;2023-04-23T06:55:27;18.50;72.80
20672;DHT22;10495;50.922;4.760;2023-04-23T06:57:53;18.80;72.10
20672;DHT22;10495;50.922;4.760;2023-04-23T07:00:21;19.00;70.90
20672;DHT22;10495;50.922;4.760;2023-04-23T07:02:47;19.30;69.20
20672;DHT22;10495;50.922;4.760;2023-04-23T07:05:12;19.40;71.00
20672;DHT22;10495;50.922;4.760;2023-04-23T07:07:38;19.60;69.80
20672;DHT22;10495;50.922;4.760;2023-04-23T07:10:05;19.90;71.30
20672;DHT22;10495;50.922;4.760;2023-04-23T07:12:31;20.00;68.40
20672;DHT22;10495;50.922;4.760;2023-04-23T07:14:57;20.00;68.10
20672;DHT22;10495;50.922;4.760;2023-04-23T07:17:22;20.20;69.50
20672;DHT22;10495;50.922;4.760;2023-04-23T07:19:48;20.40;68.30
20672;DHT22;10495;50.922;4.760;2023-04-23T07:22:14;20.60;67.50
20672;DHT22;10495;50.922;4.760;2023-04-23T07:24:40;20.50;66.70
20672;DHT22;10495;50.922;4.760;2023-04-23T07:27:06;20.70;67.10
20672;DHT22;10495;50.922;4.760;2023-04-23T07:29:32;21.10;65.30
20672;DHT22;10495;50.922;4.760;2023-04-23T07:31:58;21.30;63.30
20672;DHT22;10495;50.922;4.760;2023-04-23T07:34:23;20.90;65.00
20672;DHT22;10495;50.922;4.760;2023-04-23T07:36:49;20.90;66.20
20672;DHT22;10495;50.922;4.760;2023-04-23T07:39:16;21.10;64.20
20672;DHT22;10495;50.922;4.760;2023-04-23T07:41:42;21.30;65.40
20672;DHT22;10495;50.922;4.760;2023-04-23T07:44:07;21.50;67.10
20672;DHT22;10495;50.922;4.760;2023-04-23T07:46:33;21.80;63.70
20672;DHT22;10495;50.922;4.760;2023-04-23T07:48:59;22.00;60.50
20672;DHT22;10495;50.922;4.760;2023-04-23T07:51:25;21.80;62.10
20672;DHT22;10495;50.922;4.760;2023-04-23T07:53:52;21.90;64.30
20672;DHT22;10495;50.922;4.760;2023-04-23T07:56:19;21.80;63.10
20672;DHT22;10495;50.922;4.760;2023-04-23T07:58:46;22.10;62.30
20672;DHT22;10495;50.922;4.760;2023-04-23T08:01:12;22.30;61.60
20672;DHT22;10495;50.922;4.760;2023-04-23T08:03:37;22.30;60.50
20672;DHT22;10495;50.922;4.760;2023-04-23T08:06:03;22.60;59.80
20672;DHT22;10495;50.922;4.760;2023-04-23T08:08:29;22.30;62.10
20672;DHT22;10495;50.922;4.760;2023-04-23T08:10:55;22.60;62.30
20672;DHT22;10495;50.922;4.760;2023-04-23T08:13:20;22.90;59.70
20672;DHT22;10495;50.922;4.760;2023-04-23T08:15:46;22.80;59.80
20672;DHT22;10495;50.922;4.760;2023-04-23T08:18:13;22.70;59.60
20672;DHT22;10495;50.922;4.760;2023-04-23T08:20:39;22.50;60.50
20672;DHT22;10495;50.922;4.760;2023-04-23T08:23:05;22.50;59.60
20672;DHT22;10495;50.922;4.760;2023-04-23T08:25:31;22.30;60.30
20672;DHT22;10495;50.922;4.760;2023-04-23T08:27:57;22.20;60.00
20672;DHT22;10495;50.922;4.760;2023-04-23T08:30:23;22.30;60.40
20672;DHT22;10495;50.922;4.760;2023-04-23T08:32:50;22.40;59.20
20672;DHT22;10495;50.922;4.760;2023-04-23T08:35:18;22.40;59.20
20672;DHT22;10495;50.922;4.760;2023-04-23T08:37:44;22.30;59.70
20672;DHT22;10495;50.922;4.760;2023-04-23T08:40:10;22.10;60.50
20672;DHT22;10495;50.922;4.760;2023-04-23T08:42:49;22.30;60.10
20672;DHT22;10495;50.922;4.760;2023-04-23T08:45:17;22.30;59.50
20672;DHT22;10495;50.922;4.760;2023-04-23T08:47:43;21.70;60.20
20672;DHT22;10495;50.922;4.760;2023-04-23T08:50:17;21.80;60.50
20672;DHT22;10495;50.922;4.760;2023-04-23T08:52:53;21.90;59.30
20672;DHT22;10495;50.922;4.760;2023-04-23T08:55:21;21.20;59.90
20672;DHT22;10495;50.922;4.760;2023-04-23T08:57:47;20.70;61.90
20672;DHT22;10495;50.922;4.760;2023-04-23T09:00:15;20.80;63.20
20672;DHT22;10495;50.922;4.760;2023-04-23T09:02:43;20.80;62.30
20672;DHT22;10495;50.922;4.760;2023-04-23T09:05:10;21.10;59.90
20672;DHT22;10495;50.922;4.760;2023-04-23T09:07:36;20.90;61.80
20672;DHT22;10495;50.922;4.760;2023-04-23T09:10:06;20.70;61.40
20672;DHT22;10495;50.922;4.760;2023-04-23T09:12:34;20.30;62.50
20672;DHT22;10495;50.922;4.760;2023-04-23T09:15:01;19.80;63.20
20672;DHT22;10495;50.922;4.760;2023-04-23T09:17:28;19.50;64.30
20672;DHT22;10495;50.922;4.760;2023-04-23T09:19:54;19.50;65.80
20672;DHT22;10495;50.922;4.760;2023-04-23T09:22:43;19.60;67.30
20672;DHT22;10495;50.922;4.760;2023-04-23T09:25:11;20.30;60.80
20672;DHT22;10495;50.922;4.760;2023-04-23T09:27:37;20.30;65.20
20672;DHT22;10495;50.922;4.760;2023-04-23T09:30:05;20.20;60.10
20672;DHT22;10495;50.922;4.760;2023-04-23T09:32:34;20.20;62.50
20672;DHT22;10495;50.922;4.760;2023-04-23T09:35:04;20.20;62.40
20672;DHT22;10495;50.922;4.760;2023-04-23T09:37:30;19.90;64.00
20672;DHT22;10495;50.922;4.760;2023-04-23T09:40:01;20.00;63.40
20672;DHT22;10495;50.922;4.760;2023-04-23T09:42:28;20.20;61.80
20672;DHT22;10495;50.922;4.760;2023-04-23T09:45:20;20.20;63.90
20672;DHT22;10495;50.922;4.760;2023-04-23T09:47:52;20.30;61.60
20672;DHT22;10495;50.922;4.760;2023-04-23T09:50:19;20.20;63.40
20672;DHT22;10495;50.922;4.760;2023-04-23T09:52:55;20.20;63.30
20672;DHT22;10495;50.922;4.760;2023-04-23T09:55:32;20.20;65.60
20672;DHT22;10495;50.922;4.760;2023-04-23T09:58:03;20.50;63.30
20672;DHT22;10495;50.922;4.760;2023-04-23T10:00:34;20.40;62.00
20672;DHT22;10495;50.922;4.760;2023-04-23T10:03:00;20.20;64.70
20672;DHT22;10495;50.922;4.760;2023-04-23T10:05:27;20.00;62.60
20672;DHT22;10495;50.922;4.760;2023-04-23T10:07:53;19.80;63.20
20672;DHT22;10495;50.922;4.760;2023-04-23T10:10:20;19.80;63.30
20672;DHT22;10495;50.922;4.760;2023-04-23T10:12:46;19.80;64.20
20672;DHT22;10495;50.922;4.760;2023-04-23T10:15:13;19.80;62.70
20672;DHT22;10495;50.922;4.760;2023-04-23T10:17:39;19.80;62.20
20672;DHT22;10495;50.922;4.760;2023-04-23T10:20:08;19.70;63.70
20672;DHT22;10495;50.922;4.760;2023-04-23T10:22:37;19.90;63.30
20672;DHT22;10495;50.922;4.760;2023-04-23T10:25:10;20.00;65.40
20672;DHT22;10495;50.922;4.760;2023-04-23T10:27:41;20.30;62.30
20672;DHT22;10495;50.922;4.760;2023-04-23T10:30:09;20.30;63.10
20672;DHT22;10495;50.922;4.760;2023-04-23T10:32:36;20.20;62.00
20672;DHT22;10495;50.922;4.760;2023-04-23T10:35:06;19.90;63.80
20672;DHT22;10495;50.922;4.760;2023-04-23T10:37:34;19.80;62.60
20672;DHT22;10495;50.922;4.760;2023-04-23T10:40:08;19.90;64.40
20672;DHT22;10495;50.922;4.760;2023-04-23T10:42:40;20.10;60.30
20672;DHT22;10495;50.922;4.760;2023-04-23T10:45:12;20.30;61.10
20672;DHT22;10495;50.922;4.760;2023-04-23T10:47:40;20.30;59.80
20672;DHT22;10495;50.922;4.760;2023-04-23T10:52:47;19.90;59.90
20672;DHT22;10495;50.922;4.760;2023-04-23T10:55:20;19.90;60.20
20672;DHT22;10495;50.922;4.760;2023-04-23T10:58:06;19.70;62.70
20672;DHT22;10495;50.922;4.760;2023-04-23T11:06:03;19.40;59.50
20672;DHT22;10495;50.922;4.760;2023-04-23T11:08:30;19.40;59.60
20672;DHT22;10495;50.922;4.760;2023-04-23T11:11:00;19.00;59.90
20672;DHT22;10495;50.922;4.760;2023-04-23T11:13:27;19.00;60.20
20672;DHT22;10495;50.922;4.760;2023-04-23T11:16:12;19.30;59.90
20672;DHT22;10495;50.922;4.760;2023-04-23T11:19:01;19.10;60.40
20672;DHT22;10495;50.922;4.760;2023-04-23T11:22:03;19.10;62.60
20672;DHT22;10495;50.922;4.760;2023-04-23T11:26:58;19.40;59.60
20672;DHT22;10495;50.922;4.760;2023-04-23T11:29:26;19.50;60.10
20672;DHT22;10495;50.922;4.760;2023-04-23T11:31:53;19.60;60.00
20672;DHT22;10495;50.922;4.760;2023-04-23T11:34:19;19.60;59.60
20672;DHT22;10495;50.922;4.760;2023-04-23T11:36:47;19.40;60.00
20672;DHT22;10495;50.922;4.760;2023-04-23T11:39:15;19.80;59.30
20672;DHT22;10495;50.922;4.760;2023-04-23T11:41:43;20.00;59.70
20672;DHT22;10495;50.922;4.760;2023-04-23T11:44:11;20.10;58.50
20672;DHT22;10495;50.922;4.760;2023-04-23T11:46:37;20.00;59.20
20672;DHT22;10495;50.922;4.760;2023-04-23T11:49:03;20.20;59.00
20672;DHT22;10495;50.922;4.760;2023-04-23T11:51:28;20.30;59.80
20672;DHT22;10495;50.922;4.760;2023-04-23T11:54:01;20.50;58.90
20672;DHT22;10495;50.922;4.760;2023-04-23T11:56:30;20.50;57.80
20672;DHT22;10495;50.922;4.760;2023-04-23T11:58:59;20.60;58.10
20672;DHT22;10495;50.922;4.760;2023-04-23T12:01:48;20.60;57.30
20672;DHT22;10495;50.922;4.760;2023-04-23T12:06:44;20.30;57.80
20672;DHT22;10495;50.922;4.760;2023-04-23T12:09:10;20.20;57.60
20672;DHT22;10495;50.922;4.760;2023-04-23T12:11:37;20.20;57.30
20672;DHT22;10495;50.922;4.760;2023-04-23T12:14:03;19.80;57.80
20672;DHT22;10495;50.922;4.760;2023-04-23T12:16:43;19.70;57.80
20672;DHT22;10495;50.922;4.760;2023-04-23T12:19:19;19.30;59.30
20672;DHT22;10495;50.922;4.760;2023-04-23T12:21:53;19.00;61.00
20672;DHT22;10495;50.922;4.760;2023-04-23T12:24:24;18.70;63.70
20672;DHT22;10495;50.922;4.760;2023-04-23T12:26:58;18.60;63.60
20672;DHT22;10495;50.922;4.760;2023-04-23T12:29:25;18.30;64.00
20672;DHT22;10495;50.922;4.760;2023-04-23T12:31:59;18.20;65.20
20672;DHT22;10495;50.922;4.760;2023-04-23T12:34:25;18.00;65.80
20672;DHT22;10495;50.922;4.760;2023-04-23T12:36:53;17.90;66.00
20672;DHT22;10495;50.922;4.760;2023-04-23T12:39:31;18.00;65.30
20672;DHT22;10495;50.922;4.760;2023-04-23T12:42:00;17.90;67.70
20672;DHT22;10495;50.922;4.760;2023-04-23T12:44:27;17.70;66.30
20672;DHT22;10495;50.922;4.760;2023-04-23T12:46:57;17.40;69.70
20672;DHT22;10495;50.922;4.760;2023-04-23T12:49:25;17.30;72.10
20672;DHT22;10495;50.922;4.760;2023-04-23T12:51:52;17.20;72.60
20672;DHT22;10495;50.922;4.760;2023-04-23T12:54:24;17.10;73.70
20672;DHT22;10495;50.922;4.760;2023-04-23T12:56:51;17.20;73.80
20672;DHT22;10495;50.922;4.760;2023-04-23T12:59:16;17.30;74.20
20672;DHT22;10495;50.922;4.760;2023-04-23T13:01:42;17.10;75.60
20672;DHT22;10495;50.922;4.760;2023-04-23T13:04:07;16.90;77.10
20672;DHT22;10495;50.922;4.760;2023-04-23T13:06:33;16.90;79.30
20672;DHT22;10495;50.922;4.760;2023-04-23T13:08:59;17.10;79.10
20672;DHT22;10495;50.922;4.760;2023-04-23T13:11:28;17.10;78.60
20672;DHT22;10495;50.922;4.760;2023-04-23T13:13:53;17.20;78.70
20672;DHT22;10495;50.922;4.760;2023-04-23T13:16:19;17.30;80.00
20672;DHT22;10495;50.922;4.760;2023-04-23T13:18:45;17.50;79.30
20672;DHT22;10495;50.922;4.760;2023-04-23T13:21:11;17.70;78.40
20672;DHT22;10495;50.922;4.760;2023-04-23T13:23:36;17.50;77.90
20672;DHT22;10495;50.922;4.760;2023-04-23T13:26:03;17.40;78.30
20672;DHT22;10495;50.922;4.760;2023-04-23T13:28:31;17.80;75.80
20672;DHT22;10495;50.922;4.760;2023-04-23T13:30:56;17.60;78.20
20672;DHT22;10495;50.922;4.760;2023-04-23T13:33:22;17.60;77.10
20672;DHT22;10495;50.922;4.760;2023-04-23T13:35:47;17.70;77.60
20672;DHT22;10495;50.922;4.760;2023-04-23T13:38:13;17.80;76.30
20672;DHT22;10495;50.922;4.760;2023-04-23T13:40:39;18.10;74.50
20672;DHT22;10495;50.922;4.760;2023-04-23T13:43:04;18.10;73.60
20672;DHT22;10495;50.922;4.760;2023-04-23T13:45:30;17.90;74.10
20672;DHT22;10495;50.922;4.760;2023-04-23T13:47:56;17.90;75.20
20672;DHT22;10495;50.922;4.760;2023-04-23T13:50:22;17.70;75.70
20672;DHT22;10495;50.922;4.760;2023-04-23T13:52:48;17.60;76.00
20672;DHT22;10495;50.922;4.760;2023-04-23T13:55:13;17.10;77.50
20672;DHT22;10495;50.922;4.760;2023-04-23T13:57:39;16.80;79.30
20672;DHT22;10495;50.922;4.760;2023-04-23T14:00:05;16.90;80.60
20672;DHT22;10495;50.922;4.760;2023-04-23T14:02:31;16.90;79.70
20672;DHT22;10495;50.922;4.760;2023-04-23T14:04:57;16.90;80.00
20672;DHT22;10495;50.922;4.760;2023-04-23T14:07:23;16.90;81.60
20672;DHT22;10495;50.922;4.760;2023-04-23T14:09:48;16.50;82.80
20672;DHT22;10495;50.922;4.760;2023-04-23T14:12:18;16.30;83.80
20672;DHT22;10495;50.922;4.760;2023-04-23T14:14:43;16.30;84.10
20672;DHT22;10495;50.922;4.760;2023-04-23T14:17:09;16.30;84.50
20672;DHT22;10495;50.922;4.760;2023-04-23T14:19:35;16.20;84.50
20672;DHT22;10495;50.922;4.760;2023-04-23T14:22:02;16.10;84.90
20672;DHT22;10495;50.922;4.760;2023-04-23T14:24:33;16.10;85.70
20672;DHT22;10495;50.922;4.760;2023-04-23T14:26:59;16.00;86.20
20672;DHT22;10495;50.922;4.760;2023-04-23T14:29:39;16.10;85.40
20672;DHT22;10495;50.922;4.760;2023-04-23T14:32:05;16.00;86.40
20672;DHT22;10495;50.922;4.760;2023-04-23T14:34:33;15.90;86.00
20672;DHT22;10495;50.922;4.760;2023-04-23T14:37:02;15.80;85.40
20672;DHT22;10495;50.922;4.760;2023-04-23T14:39:28;15.90;85.20
20672;DHT22;10495;50.922;4.760;2023-04-23T14:41:54;15.60;85.40
20672;DHT22;10495;50.922;4.760;2023-04-23T14:44:20;15.60;86.70
20672;DHT22;10495;50.922;4.760;2023-04-23T14:46:48;15.50;87.30
20672;DHT22;10495;50.922;4.760;2023-04-23T14:49:16;15.60;87.30
20672;DHT22;10495;50.922;4.760;2023-04-23T14:51:42;15.60;88.50
20672;DHT22;10495;50.922;4.760;2023-04-23T14:54:08;15.60;88.90
20672;DHT22;10495;50.922;4.760;2023-04-23T14:56:34;15.70;88.20
20672;DHT22;10495;50.922;4.760;2023-04-23T14:59:02;15.90;88.60
20672;DHT22;10495;50.922;4.760;2023-04-23T15:01:28;16.00;88.20
20672;DHT22;10495;50.922;4.760;2023-04-23T15:03:54;16.00;87.40
20672;DHT22;10495;50.922;4.760;2023-04-23T15:06:20;16.00;87.40
20672;DHT22;10495;50.922;4.760;2023-04-23T15:08:45;16.10;87.80
20672;DHT22;10495;50.922;4.760;2023-04-23T15:11:12;16.10;87.00
20672;DHT22;10495;50.922;4.760;2023-04-23T15:16:27;16.30;85.10
20672;DHT22;10495;50.922;4.760;2023-04-23T15:18:59;16.40;86.00
20672;DHT22;10495;50.922;4.760;2023-04-23T15:21:26;16.40;85.30
20672;DHT22;10495;50.922;4.760;2023-04-23T15:23:52;16.30;85.20
20672;DHT22;10495;50.922;4.760;2023-04-23T15:26:19;16.40;84.40
20672;DHT22;10495;50.922;4.760;2023-04-23T15:28:45;16.40;84.40
20672;DHT22;10495;50.922;4.760;2023-04-23T15:31:10;16.50;84.00
20672;DHT22;10495;50.922;4.760;2023-04-23T15:33:36;16.60;82.80
20672;DHT22;10495;50.922;4.760;2023-04-23T15:36:02;16.50;83.50
20672;DHT22;10495;50.922;4.760;2023-04-23T15:38:28;16.40;83.80
20672;DHT22;10495;50.922;4.760;2023-04-23T15:40:57;16.50;83.10
20672;DHT22;10495;50.922;4.760;2023-04-23T15:43:23;16.40;83.80
20672;DHT22;10495;50.922;4.760;2023-04-23T15:45:48;16.50;82.20